sensor_id;sensor_type;location;lat;lon;timestamp;P1;durP1;ratioP1;P2;durP2;ratioP2
44885;SDS011;36669;51.428;21.162;2022-09-27T03:09:41;78.30;;;31.98;;
44885;SDS011;36669;51.428;21.162;2022-09-27T03:12:09;114.57;;;32.08;;
44885;SDS011;36669;51.428;21.162;2022-09-27T03:14:35;76.38;;;32.28;;
44885;SDS011;36669;51.428;21.162;2022-09-27T03:17:00;89.40;;;31.48;;
44885;SDS011;36669;51.428;21.162;2022-09-27T03:19:26;86.43;;;31.67;;
44885;SDS011;36669;51.428;21.162;2022-09-27T03:21:51;120.43;;;33.03;;
44885;SDS011;36669;51.428;21.162;2022-09-27T03:24:17;90.10;;;33.17;;
44885;SDS011;36669;51.428;21.162;2022-09-27T03:26:42;73.07;;;31.67;;
44885;SDS011;36669;51.428;21.162;2022-09-27T03:29:08;91.20;;;33.35;;
44885;SDS011;36669;51.428;21.162;2022-09-27T03:31:34;106.38;;;34.47;;
44885;SDS011;36669;51.428;21.162;2022-09-27T03:33:59;91.82;;;33.08;;
44885;SDS011;36669;51.428;21.162;2022-09-27T03:36:25;88.63;;;34.35;;
44885;SDS011;36669;51.428;21.162;2022-09-27T03:38:51;84.38;;;34.20;;
44885;SDS011;36669;51.428;21.162;2022-09-27T03:41:16;99.43;;;34.15;;
44885;SDS011;36669;51.428;21.162;2022-09-27T03:43:42;90.55;;;35.97;;
44885;SDS011;36669;51.428;21.162;2022-09-27T03:46:07;102.03;;;34.90;;
44885;SDS011;36669;51.428;21.162;2022-09-27T03:48:33;85.57;;;33.40;;
44885;SDS011;36669;51.428;21.162;2022-09-27T03:50:58;88.13;;;33.28;;
44885;SDS011;36669;51.428;21.162;2022-09-27T03:53:24;86.63;;;34.03;;
44885;SDS011;36669;51.428;21.162;2022-09-27T03:55:50;105.70;;;31.20;;
44885;SDS011;36669;51.428;21.162;2022-09-27T03:58:15;93.60;;;31.88;;
44885;SDS011;36669;51.428;21.162;2022-09-27T04:00:41;79.47;;;30.63;;
44885;SDS011;36669;51.428;21.162;2022-09-27T04:03:06;69.40;;;29.60;;
44885;SDS011;36669;51.428;21.162;2022-09-27T04:05:32;72.55;;;30.50;;
44885;SDS011;36669;51.428;21.162;2022-09-27T04:07:57;72.38;;;31.58;;
44885;SDS011;36669;51.428;21.162;2022-09-27T04:10:23;74.35;;;31.85;;
44885;SDS011;36669;51.428;21.162;2022-09-27T04:12:49;86.60;;;30.60;;
44885;SDS011;36669;51.428;21.162;2022-09-27T04:15:14;79.15;;;30.65;;
44885;SDS011;36669;51.428;21.162;2022-09-27T04:17:40;78.47;;;30.00;;
44885;SDS011;36669;51.428;21.162;2022-09-27T04:20:07;89.65;;;31.35;;
44885;SDS011;36669;51.428;21.162;2022-09-27T04:22:33;88.10;;;31.80;;
44885;SDS011;36669;51.428;21.162;2022-09-27T04:24:59;89.65;;;31.77;;
44885;SDS011;36669;51.428;21.162;2022-09-27T04:27:24;96.30;;;31.00;;
44885;SDS011;36669;51.428;21.162;2022-09-27T04:29:50;85.65;;;30.10;;
44885;SDS011;36669;51.428;21.162;2022-09-27T04:32:15;95.60;;;33.00;;
44885;SDS011;36669;51.428;21.162;2022-09-27T04:34:41;102.28;;;28.13;;
44885;SDS011;36669;51.428;21.162;2022-09-27T04:37:06;105.97;;;28.17;;
44885;SDS011;36669;51.428;21.162;2022-09-27T04:39:32;65.28;;;26.85;;
44885;SDS011;36669;51.428;21.162;2022-09-27T04:41:57;62.92;;;25.17;;
44885;SDS011;36669;51.428;21.162;2022-09-27T04:44:23;92.80;;;25.95;;
44885;SDS011;36669;51.428;21.162;2022-09-27T04:46:48;81.68;;;26.38;;
44885;SDS011;36669;51.428;21.162;2022-09-27T04:49:14;128.27;;;25.88;;
44885;SDS011;36669;51.428;21.162;2022-09-27T04:51:39;84.00;;;26.27;;
44885;SDS011;36669;51.428;21.162;2022-09-27T04:54:05;105.93;;;27.38;;
44885;SDS011;36669;51.428;21.162;2022-09-27T04:56:30;83.10;;;27.48;;
44885;SDS011;36669;51.428;21.162;2022-09-27T04:58:56;72.97;;;26.73;;
44885;SDS011;36669;51.428;21.162;2022-09-27T05:01:21;103.68;;;30.55;;
44885;SDS011;36669;51.428;21.162;2022-09-27T05:03:47;101.97;;;30.77;;
44885;SDS011;36669;51.428;21.162;2022-09-27T05:06:12;79.63;;;27.48;;
44885;SDS011;36669;51.428;21.162;2022-09-27T05:08:38;89.72;;;33.95;;
44885;SDS011;36669;51.428;21.162;2022-09-27T05:11:04;63.95;;;25.95;;
44885;SDS011;36669;51.428;21.162;2022-09-27T05:13:29;81.78;;;25.45;;
44885;SDS011;36669;51.428;21.162;2022-09-27T05:16:00;67.10;;;27.92;;
44885;SDS011;36669;51.428;21.162;2022-09-27T05:18:26;121.82;;;32.13;;
44885;SDS011;36669;51.428;21.162;2022-09-27T05:20:52;80.45;;;25.88;;
44885;SDS011;36669;51.428;21.162;2022-09-27T05:23:17;80.82;;;26.33;;
44885;SDS011;36669;51.428;21.162;2022-09-27T05:25:43;66.40;;;23.23;;
44885;SDS011;36669;51.428;21.162;2022-09-27T05:28:08;72.25;;;24.05;;
44885;SDS011;36669;51.428;21.162;2022-09-27T05:30:34;87.57;;;24.45;;
44885;SDS011;36669;51.428;21.162;2022-09-27T05:32:59;66.88;;;24.27;;
44885;SDS011;36669;51.428;21.162;2022-09-27T05:35:25;53.05;;;22.65;;
44885;SDS011;36669;51.428;21.162;2022-09-27T05:37:54;57.72;;;21.25;;
44885;SDS011;36669;51.428;21.162;2022-09-27T05:40:21;67.22;;;21.65;;
44885;SDS011;36669;51.428;21.162;2022-09-27T05:42:48;57.30;;;20.13;;
44885;SDS011;36669;51.428;21.162;2022-09-27T05:45:13;59.67;;;21.48;;
44885;SDS011;36669;51.428;21.162;2022-09-27T05:47:39;81.72;;;22.38;;
44885;SDS011;36669;51.428;21.162;2022-09-27T05:50:04;66.68;;;22.25;;
44885;SDS011;36669;51.428;21.162;2022-09-27T05:52:30;71.38;;;23.70;;
44885;SDS011;36669;51.428;21.162;2022-09-27T05:54:55;52.72;;;22.95;;
44885;SDS011;36669;51.428;21.162;2022-09-27T05:57:21;72.65;;;23.92;;
44885;SDS011;36669;51.428;21.162;2022-09-27T05:59:46;52.33;;;25.02;;
44885;SDS011;36669;51.428;21.162;2022-09-27T06:02:12;81.45;;;28.52;;
44885;SDS011;36669;51.428;21.162;2022-09-27T06:04:37;73.15;;;30.67;;
44885;SDS011;36669;51.428;21.162;2022-09-27T06:07:03;69.05;;;28.55;;
44885;SDS011;36669;51.428;21.162;2022-09-27T06:09:28;65.90;;;27.17;;
44885;SDS011;36669;51.428;21.162;2022-09-27T06:11:54;73.40;;;27.75;;
44885;SDS011;36669;51.428;21.162;2022-09-27T06:14:19;58.05;;;24.23;;
44885;SDS011;36669;51.428;21.162;2022-09-27T06:16:45;55.63;;;25.35;;
44885;SDS011;36669;51.428;21.162;2022-09-27T06:19:10;65.00;;;24.48;;
44885;SDS011;36669;51.428;21.162;2022-09-27T06:21:36;70.70;;;25.75;;
44885;SDS011;36669;51.428;21.162;2022-09-27T06:24:02;68.30;;;25.40;;
44885;SDS011;36669;51.428;21.162;2022-09-27T06:26:27;53.08;;;24.02;;
44885;SDS011;36669;51.428;21.162;2022-09-27T06:28:53;60.10;;;25.85;;
44885;SDS011;36669;51.428;21.162;2022-09-27T06:31:19;64.63;;;26.50;;
44885;SDS011;36669;51.428;21.162;2022-09-27T06:33:45;57.15;;;25.08;;
44885;SDS011;36669;51.428;21.162;2022-09-27T06:36:10;58.58;;;25.05;;
44885;SDS011;36669;51.428;21.162;2022-09-27T06:38:36;56.70;;;24.08;;
44885;SDS011;36669;51.428;21.162;2022-09-27T06:41:02;50.63;;;24.17;;
44885;SDS011;36669;51.428;21.162;2022-09-27T06:43:29;45.80;;;23.67;;
44885;SDS011;36669;51.428;21.162;2022-09-27T06:45:55;47.65;;;23.80;;
44885;SDS011;36669;51.428;21.162;2022-09-27T06:48:23;46.97;;;23.52;;
44885;SDS011;36669;51.428;21.162;2022-09-27T06:50:48;46.60;;;21.67;;
44885;SDS011;36669;51.428;21.162;2022-09-27T06:53:14;44.05;;;22.52;;
44885;SDS011;36669;51.428;21.162;2022-09-27T06:55:41;45.67;;;21.20;;
44885;SDS011;36669;51.428;21.162;2022-09-27T06:58:08;59.85;;;23.83;;
44885;SDS011;36669;51.428;21.162;2022-09-27T07:00:34;64.75;;;25.30;;
44885;SDS011;36669;51.428;21.162;2022-09-27T07:03:00;57.03;;;25.90;;
44885;SDS011;36669;51.428;21.162;2022-09-27T07:05:28;65.28;;;25.38;;
44885;SDS011;36669;51.428;21.162;2022-09-27T07:07:55;51.80;;;24.15;;
44885;SDS011;36669;51.428;21.162;2022-09-27T07:10:21;57.40;;;25.20;;
44885;SDS011;36669;51.428;21.162;2022-09-27T07:12:50;58.22;;;24.95;;
44885;SDS011;36669;51.428;21.162;2022-09-27T07:15:16;55.42;;;26.42;;
44885;SDS011;36669;51.428;21.162;2022-09-27T07:17:42;55.10;;;26.05;;
44885;SDS011;36669;51.428;21.162;2022-09-27T07:20:08;50.10;;;24.02;;
44885;SDS011;36669;51.428;21.162;2022-09-27T07:22:43;49.95;;;25.08;;
44885;SDS011;36669;51.428;21.162;2022-09-27T07:25:08;51.55;;;24.40;;
44885;SDS011;36669;51.428;21.162;2022-09-27T07:27:34;50.40;;;24.35;;
44885;SDS011;36669;51.428;21.162;2022-09-27T07:29:59;50.60;;;24.58;;
44885;SDS011;36669;51.428;21.162;2022-09-27T07:32:25;46.80;;;21.73;;
44885;SDS011;36669;51.428;21.162;2022-09-27T07:34:51;40.72;;;22.02;;
44885;SDS011;36669;51.428;21.162;2022-09-27T07:37:16;42.17;;;21.17;;
44885;SDS011;36669;51.428;21.162;2022-09-27T07:39:42;42.65;;;20.98;;
44885;SDS011;36669;51.428;21.162;2022-09-27T07:42:08;43.30;;;21.30;;
44885;SDS011;36669;51.428;21.162;2022-09-27T07:44:33;43.15;;;20.45;;
44885;SDS011;36669;51.428;21.162;2022-09-27T07:46:59;45.67;;;24.42;;
44885;SDS011;36669;51.428;21.162;2022-09-27T07:49:24;46.45;;;24.58;;
44885;SDS011;36669;51.428;21.162;2022-09-27T07:51:50;46.50;;;22.13;;
44885;SDS011;36669;51.428;21.162;2022-09-27T07:54:15;38.80;;;20.42;;
44885;SDS011;36669;51.428;21.162;2022-09-27T07:56:41;40.25;;;19.60;;
44885;SDS011;36669;51.428;21.162;2022-09-27T07:59:08;40.17;;;19.70;;
44885;SDS011;36669;51.428;21.162;2022-09-27T08:01:34;35.03;;;18.65;;
44885;SDS011;36669;51.428;21.162;2022-09-27T08:03:59;33.60;;;17.77;;
44885;SDS011;36669;51.428;21.162;2022-09-27T08:06:25;32.60;;;17.70;;
44885;SDS011;36669;51.428;21.162;2022-09-27T08:08:50;32.10;;;18.52;;
44885;SDS011;36669;51.428;21.162;2022-09-27T08:11:16;32.53;;;17.75;;
44885;SDS011;36669;51.428;21.162;2022-09-27T08:13:43;32.95;;;16.98;;
44885;SDS011;36669;51.428;21.162;2022-09-27T08:16:09;33.78;;;19.35;;
44885;SDS011;36669;51.428;21.162;2022-09-27T08:18:35;31.95;;;16.83;;
44885;SDS011;36669;51.428;21.162;2022-09-27T08:21:01;32.25;;;18.60;;
44885;SDS011;36669;51.428;21.162;2022-09-27T08:23:27;33.85;;;18.75;;
44885;SDS011;36669;51.428;21.162;2022-09-27T08:25:54;32.13;;;16.85;;
44885;SDS011;36669;51.428;21.162;2022-09-27T08:28:20;34.53;;;18.92;;
44885;SDS011;36669;51.428;21.162;2022-09-27T08:30:46;36.47;;;18.85;;
44885;SDS011;36669;51.428;21.162;2022-09-27T08:33:11;34.22;;;18.85;;
44885;SDS011;36669;51.428;21.162;2022-09-27T08:35:37;35.80;;;18.88;;
44885;SDS011;36669;51.428;21.162;2022-09-27T08:38:02;33.28;;;18.73;;
44885;SDS011;36669;51.428;21.162;2022-09-27T08:41:11;38.92;;;19.90;;
44885;SDS011;36669;51.428;21.162;2022-09-27T08:46:11;42.58;;;22.83;;
44885;SDS011;36669;51.428;21.162;2022-09-27T08:48:50;39.75;;;21.92;;
44885;SDS011;36669;51.428;21.162;2022-09-27T08:51:23;38.35;;;22.02;;
44885;SDS011;36669;51.428;21.162;2022-09-27T08:53:55;39.28;;;21.45;;
44885;SDS011;36669;51.428;21.162;2022-09-27T08:56:26;39.28;;;21.67;;
44885;SDS011;36669;51.428;21.162;2022-09-27T08:58:53;35.60;;;21.17;;
44885;SDS011;36669;51.428;21.162;2022-09-27T09:01:30;35.55;;;20.80;;
44885;SDS011;36669;51.428;21.162;2022-09-27T09:03:56;34.65;;;21.10;;
44885;SDS011;36669;51.428;21.162;2022-09-27T09:06:26;36.28;;;21.27;;
44885;SDS011;36669;51.428;21.162;2022-09-27T09:09:09;33.17;;;20.95;;
44885;SDS011;36669;51.428;21.162;2022-09-27T09:11:59;32.83;;;19.88;;
44885;SDS011;36669;51.428;21.162;2022-09-27T09:14:41;35.92;;;21.05;;
44885;SDS011;36669;51.428;21.162;2022-09-27T09:34:19;25.25;;;18.45;;
44885;SDS011;36669;51.428;21.162;2022-09-27T09:36:54;29.38;;;19.42;;
44885;SDS011;36669;51.428;21.162;2022-09-27T09:44:58;25.25;;;18.38;;
44885;SDS011;36669;51.428;21.162;2022-09-27T09:47:39;25.58;;;18.63;;
44885;SDS011;36669;51.428;21.162;2022-09-27T09:53:01;27.85;;;20.88;;
44885;SDS011;36669;51.428;21.162;2022-09-27T09:55:36;28.17;;;21.67;;
44885;SDS011;36669;51.428;21.162;2022-09-27T09:58:19;28.10;;;21.48;;
44885;SDS011;36669;51.428;21.162;2022-09-27T10:00:47;29.20;;;22.25;;
44885;SDS011;36669;51.428;21.162;2022-09-27T10:03:15;29.63;;;21.70;;
44885;SDS011;36669;51.428;21.162;2022-09-27T10:05:41;30.48;;;23.02;;
44885;SDS011;36669;51.428;21.162;2022-09-27T10:08:11;31.35;;;23.60;;
44885;SDS011;36669;51.428;21.162;2022-09-27T10:10:41;34.17;;;25.15;;
44885;SDS011;36669;51.428;21.162;2022-09-27T10:13:07;36.08;;;24.17;;
44885;SDS011;36669;51.428;21.162;2022-09-27T10:15:39;33.38;;;24.02;;
44885;SDS011;36669;51.428;21.162;2022-09-27T10:18:04;28.42;;;22.25;;
44885;SDS011;36669;51.428;21.162;2022-09-27T10:20:41;33.95;;;22.38;;
44885;SDS011;36669;51.428;21.162;2022-09-27T10:23:15;30.88;;;22.65;;
44885;SDS011;36669;51.428;21.162;2022-09-27T10:30:57;26.67;;;19.77;;
44885;SDS011;36669;51.428;21.162;2022-09-27T10:33:31;27.77;;;21.08;;
44885;SDS011;36669;51.428;21.162;2022-09-27T10:35:58;31.48;;;22.63;;
44885;SDS011;36669;51.428;21.162;2022-09-27T10:38:28;29.90;;;22.05;;
44885;SDS011;36669;51.428;21.162;2022-09-27T10:40:55;26.00;;;19.08;;
44885;SDS011;36669;51.428;21.162;2022-09-27T10:43:24;26.90;;;19.17;;
44885;SDS011;36669;51.428;21.162;2022-09-27T10:45:58;28.60;;;20.42;;
44885;SDS011;36669;51.428;21.162;2022-09-27T10:48:24;26.08;;;19.92;;
44885;SDS011;36669;51.428;21.162;2022-09-27T10:50:57;25.95;;;20.52;;
44885;SDS011;36669;51.428;21.162;2022-09-27T10:53:31;26.95;;;20.65;;
44885;SDS011;36669;51.428;21.162;2022-09-27T10:55:59;28.08;;;20.80;;
44885;SDS011;36669;51.428;21.162;2022-09-27T10:58:32;28.85;;;21.75;;
44885;SDS011;36669;51.428;21.162;2022-09-27T11:01:04;26.17;;;21.13;;
44885;SDS011;36669;51.428;21.162;2022-09-27T11:03:34;26.27;;;20.40;;
44885;SDS011;36669;51.428;21.162;2022-09-27T11:08:47;26.95;;;22.25;;
44885;SDS011;36669;51.428;21.162;2022-09-27T11:14:03;29.10;;;22.80;;
44885;SDS011;36669;51.428;21.162;2022-09-27T11:16:47;31.63;;;21.95;;
44885;SDS011;36669;51.428;21.162;2022-09-27T11:28:01;27.85;;;21.85;;
44885;SDS011;36669;51.428;21.162;2022-09-27T11:30:29;26.30;;;21.85;;
44885;SDS011;36669;51.428;21.162;2022-09-27T11:33:27;27.83;;;21.65;;
44885;SDS011;36669;51.428;21.162;2022-09-27T11:46:23;28.60;;;23.17;;
44885;SDS011;36669;51.428;21.162;2022-09-27T11:49:09;31.17;;;23.80;;
44885;SDS011;36669;51.428;21.162;2022-09-27T11:51:59;32.30;;;25.23;;
44885;SDS011;36669;51.428;21.162;2022-09-27T12:00:20;35.20;;;27.23;;
44885;SDS011;36669;51.428;21.162;2022-09-27T12:02:55;32.88;;;26.52;;
44885;SDS011;36669;51.428;21.162;2022-09-27T12:11:17;35.30;;;26.35;;
44885;SDS011;36669;51.428;21.162;2022-09-27T12:13:51;34.80;;;25.85;;
44885;SDS011;36669;51.428;21.162;2022-09-27T12:16:24;36.03;;;25.58;;
44885;SDS011;36669;51.428;21.162;2022-09-27T12:18:51;30.70;;;24.95;;
44885;SDS011;36669;51.428;21.162;2022-09-27T12:21:18;30.75;;;24.10;;
44885;SDS011;36669;51.428;21.162;2022-09-27T12:23:50;32.75;;;24.48;;
44885;SDS011;36669;51.428;21.162;2022-09-27T12:26:24;32.35;;;24.95;;
44885;SDS011;36669;51.428;21.162;2022-09-27T12:31:21;31.98;;;24.38;;
44885;SDS011;36669;51.428;21.162;2022-09-27T12:36:27;33.17;;;26.50;;
44885;SDS011;36669;51.428;21.162;2022-09-27T12:39:42;34.60;;;24.05;;
44885;SDS011;36669;51.428;21.162;2022-09-27T12:41:53;31.00;;;23.95;;
44885;SDS011;36669;51.428;21.162;2022-09-27T12:44:26;31.85;;;23.50;;
44885;SDS011;36669;51.428;21.162;2022-09-27T12:52:26;27.90;;;21.27;;
44885;SDS011;36669;51.428;21.162;2022-09-27T12:55:07;30.08;;;21.15;;
44885;SDS011;36669;51.428;21.162;2022-09-27T13:00:30;25.30;;;19.30;;
44885;SDS011;36669;51.428;21.162;2022-09-27T13:03:20;39.40;;;22.42;;
44885;SDS011;36669;51.428;21.162;2022-09-27T13:13:47;22.35;;;18.58;;
44885;SDS011;36669;51.428;21.162;2022-09-27T13:16:18;19.95;;;17.30;;
44885;SDS011;36669;51.428;21.162;2022-09-27T13:21:13;21.33;;;17.77;;
44885;SDS011;36669;51.428;21.162;2022-09-27T13:27:26;22.52;;;16.83;;
44885;SDS011;36669;51.428;21.162;2022-09-27T13:29:51;20.55;;;17.08;;
44885;SDS011;36669;51.428;21.162;2022-09-27T13:32:36;19.13;;;15.82;;
44885;SDS011;36669;51.428;21.162;2022-09-27T13:35:22;18.38;;;15.45;;
44885;SDS011;36669;51.428;21.162;2022-09-27T13:37:58;18.23;;;15.85;;
44885;SDS011;36669;51.428;21.162;2022-09-27T13:40:33;18.55;;;15.80;;
44885;SDS011;36669;51.428;21.162;2022-09-27T13:45:41;19.27;;;16.30;;
44885;SDS011;36669;51.428;21.162;2022-09-27T13:48:16;19.88;;;17.15;;
44885;SDS011;36669;51.428;21.162;2022-09-27T13:50:49;20.40;;;15.90;;
44885;SDS011;36669;51.428;21.162;2022-09-27T13:53:39;19.35;;;15.30;;
44885;SDS011;36669;51.428;21.162;2022-09-27T13:56:05;22.45;;;16.13;;
44885;SDS011;36669;51.428;21.162;2022-09-27T13:58:54;16.77;;;14.63;;
44885;SDS011;36669;51.428;21.162;2022-09-27T14:01:27;16.50;;;14.73;;
44885;SDS011;36669;51.428;21.162;2022-09-27T14:04:15;20.73;;;15.05;;
44885;SDS011;36669;51.428;21.162;2022-09-27T14:06:47;21.98;;;15.85;;
44885;SDS011;36669;51.428;21.162;2022-09-27T14:09:20;19.08;;;15.35;;
44885;SDS011;36669;51.428;21.162;2022-09-27T14:11:51;25.13;;;15.30;;
44885;SDS011;36669;51.428;21.162;2022-09-27T14:14:25;19.75;;;13.85;;
44885;SDS011;36669;51.428;21.162;2022-09-27T14:16:54;17.43;;;13.67;;
44885;SDS011;36669;51.428;21.162;2022-09-27T14:19:23;18.05;;;14.25;;
44885;SDS011;36669;51.428;21.162;2022-09-27T14:22:10;16.88;;;14.35;;
44885;SDS011;36669;51.428;21.162;2022-09-27T14:27:10;18.83;;;14.23;;
44885;SDS011;36669;51.428;21.162;2022-09-27T14:29:42;19.48;;;14.95;;
44885;SDS011;36669;51.428;21.162;2022-09-27T14:32:09;18.60;;;15.02;;
44885;SDS011;36669;51.428;21.162;2022-09-27T14:34:36;16.20;;;14.30;;
44885;SDS011;36669;51.428;21.162;2022-09-27T14:37:02;17.25;;;14.00;;
44885;SDS011;36669;51.428;21.162;2022-09-27T14:39:29;16.40;;;14.25;;
44885;SDS011;36669;51.428;21.162;2022-09-27T14:42:00;20.48;;;15.55;;
44885;SDS011;36669;51.428;21.162;2022-09-27T14:44:29;19.85;;;14.52;;
44885;SDS011;36669;51.428;21.162;2022-09-27T14:47:16;16.23;;;13.55;;
44885;SDS011;36669;51.428;21.162;2022-09-27T14:49:50;17.45;;;13.48;;
44885;SDS011;36669;51.428;21.162;2022-09-27T14:52:18;16.70;;;12.15;;
44885;SDS011;36669;51.428;21.162;2022-09-27T14:54:59;25.38;;;14.65;;
44885;SDS011;36669;51.428;21.162;2022-09-27T14:57:34;15.65;;;12.90;;
44885;SDS011;36669;51.428;21.162;2022-09-27T15:00:08;14.95;;;12.27;;
44885;SDS011;36669;51.428;21.162;2022-09-27T15:02:48;12.43;;;11.05;;
44885;SDS011;36669;51.428;21.162;2022-09-27T15:05:16;18.25;;;11.73;;
44885;SDS011;36669;51.428;21.162;2022-09-27T15:07:44;17.52;;;12.85;;
44885;SDS011;36669;51.428;21.162;2022-09-27T15:10:14;14.07;;;11.18;;
44885;SDS011;36669;51.428;21.162;2022-09-27T15:12:42;12.68;;;10.27;;
44885;SDS011;36669;51.428;21.162;2022-09-27T15:15:14;16.88;;;10.82;;
44885;SDS011;36669;51.428;21.162;2022-09-27T15:17:42;14.23;;;11.88;;
44885;SDS011;36669;51.428;21.162;2022-09-27T15:20:43;13.35;;;10.25;;
44885;SDS011;36669;51.428;21.162;2022-09-27T15:23:01;18.98;;;14.38;;
44885;SDS011;36669;51.428;21.162;2022-09-27T15:25:35;17.42;;;13.18;;
44885;SDS011;36669;51.428;21.162;2022-09-27T15:28:12;13.88;;;10.90;;
44885;SDS011;36669;51.428;21.162;2022-09-27T15:30:42;15.48;;;10.55;;
44885;SDS011;36669;51.428;21.162;2022-09-27T15:33:20;13.13;;;10.60;;
44885;SDS011;36669;51.428;21.162;2022-09-27T15:35:51;14.05;;;10.43;;
44885;SDS011;36669;51.428;21.162;2022-09-27T15:43:19;15.32;;;11.68;;
44885;SDS011;36669;51.428;21.162;2022-09-27T15:45:50;14.02;;;11.13;;
44885;SDS011;36669;51.428;21.162;2022-09-27T15:48:17;13.95;;;11.63;;
44885;SDS011;36669;51.428;21.162;2022-09-27T15:50:44;18.05;;;12.05;;
44885;SDS011;36669;51.428;21.162;2022-09-27T15:53:10;16.42;;;12.00;;
44885;SDS011;36669;51.428;21.162;2022-09-27T15:55:40;14.68;;;11.40;;
44885;SDS011;36669;51.428;21.162;2022-09-27T15:58:15;15.50;;;11.18;;
44885;SDS011;36669;51.428;21.162;2022-09-27T16:00:57;16.80;;;12.57;;
44885;SDS011;36669;51.428;21.162;2022-09-27T16:03:25;16.73;;;12.70;;
44885;SDS011;36669;51.428;21.162;2022-09-27T16:05:51;16.20;;;12.80;;
44885;SDS011;36669;51.428;21.162;2022-09-27T16:08:19;16.45;;;11.52;;
44885;SDS011;36669;51.428;21.162;2022-09-27T16:10:46;13.60;;;11.20;;
44885;SDS011;36669;51.428;21.162;2022-09-27T16:13:14;14.40;;;11.80;;
44885;SDS011;36669;51.428;21.162;2022-09-27T16:15:40;17.33;;;12.10;;
44885;SDS011;36669;51.428;21.162;2022-09-27T16:18:05;16.15;;;12.27;;
44885;SDS011;36669;51.428;21.162;2022-09-27T16:20:31;16.15;;;12.90;;
44885;SDS011;36669;51.428;21.162;2022-09-27T16:22:57;15.45;;;12.32;;
44885;SDS011;36669;51.428;21.162;2022-09-27T16:25:23;19.15;;;14.27;;
44885;SDS011;36669;51.428;21.162;2022-09-27T16:27:49;17.13;;;13.55;;
44885;SDS011;36669;51.428;21.162;2022-09-27T16:30:15;17.77;;;12.73;;
44885;SDS011;36669;51.428;21.162;2022-09-27T16:32:42;16.85;;;13.05;;
44885;SDS011;36669;51.428;21.162;2022-09-27T16:35:08;17.67;;;13.23;;
44885;SDS011;36669;51.428;21.162;2022-09-27T16:37:35;20.98;;;15.40;;
44885;SDS011;36669;51.428;21.162;2022-09-27T16:40:02;24.88;;;15.88;;
44885;SDS011;36669;51.428;21.162;2022-09-27T16:42:28;23.05;;;16.35;;
44885;SDS011;36669;51.428;21.162;2022-09-27T16:44:53;23.38;;;15.88;;
44885;SDS011;36669;51.428;21.162;2022-09-27T16:47:19;21.80;;;15.25;;
44885;SDS011;36669;51.428;21.162;2022-09-27T16:49:44;24.38;;;15.75;;
44885;SDS011;36669;51.428;21.162;2022-09-27T16:52:10;21.00;;;15.80;;
44885;SDS011;36669;51.428;21.162;2022-09-27T16:54:36;23.90;;;17.17;;
44885;SDS011;36669;51.428;21.162;2022-09-27T16:57:01;25.52;;;17.33;;
44885;SDS011;36669;51.428;21.162;2022-09-27T16:59:27;25.98;;;17.77;;
44885;SDS011;36669;51.428;21.162;2022-09-27T17:01:52;35.97;;;24.05;;
44885;SDS011;36669;51.428;21.162;2022-09-27T17:04:18;36.70;;;24.48;;
44885;SDS011;36669;51.428;21.162;2022-09-27T17:06:44;37.40;;;23.10;;
44885;SDS011;36669;51.428;21.162;2022-09-27T17:09:09;30.90;;;22.33;;
44885;SDS011;36669;51.428;21.162;2022-09-27T17:11:34;31.10;;;22.20;;
44885;SDS011;36669;51.428;21.162;2022-09-27T17:14:00;32.28;;;21.38;;
44885;SDS011;36669;51.428;21.162;2022-09-27T17:16:26;40.05;;;26.88;;
44885;SDS011;36669;51.428;21.162;2022-09-27T17:18:51;50.78;;;34.20;;
44885;SDS011;36669;51.428;21.162;2022-09-27T17:21:17;40.15;;;29.02;;
44885;SDS011;36669;51.428;21.162;2022-09-27T17:23:43;54.40;;;34.53;;
44885;SDS011;36669;51.428;21.162;2022-09-27T17:28:42;44.55;;;28.50;;
44885;SDS011;36669;51.428;21.162;2022-09-27T17:31:08;40.45;;;29.70;;
44885;SDS011;36669;51.428;21.162;2022-09-27T17:33:36;42.50;;;29.67;;
44885;SDS011;36669;51.428;21.162;2022-09-27T17:36:04;52.80;;;35.88;;
44885;SDS011;36669;51.428;21.162;2022-09-27T17:38:30;71.85;;;50.38;;
44885;SDS011;36669;51.428;21.162;2022-09-27T17:40:59;60.15;;;38.50;;
44885;SDS011;36669;51.428;21.162;2022-09-27T17:43:25;46.67;;;32.05;;
44885;SDS011;36669;51.428;21.162;2022-09-27T17:45:51;68.60;;;43.83;;
44885;SDS011;36669;51.428;21.162;2022-09-27T17:48:16;41.47;;;28.35;;
44885;SDS011;36669;51.428;21.162;2022-09-27T17:50:44;41.90;;;27.23;;
44885;SDS011;36669;51.428;21.162;2022-09-27T17:53:11;39.90;;;27.80;;
44885;SDS011;36669;51.428;21.162;2022-09-27T17:55:36;44.85;;;29.45;;
44885;SDS011;36669;51.428;21.162;2022-09-27T17:58:02;40.95;;;27.92;;
44885;SDS011;36669;51.428;21.162;2022-09-27T18:00:27;44.28;;;28.40;;
44885;SDS011;36669;51.428;21.162;2022-09-27T18:02:53;47.58;;;28.92;;
44885;SDS011;36669;51.428;21.162;2022-09-27T18:05:18;67.65;;;38.10;;
44885;SDS011;36669;51.428;21.162;2022-09-27T18:07:44;40.03;;;25.13;;
44885;SDS011;36669;51.428;21.162;2022-09-27T18:10:09;41.85;;;25.02;;
44885;SDS011;36669;51.428;21.162;2022-09-27T18:12:35;40.88;;;25.85;;
44885;SDS011;36669;51.428;21.162;2022-09-27T18:15:01;43.13;;;26.17;;
44885;SDS011;36669;51.428;21.162;2022-09-27T18:17:27;41.05;;;27.15;;
44885;SDS011;36669;51.428;21.162;2022-09-27T18:19:53;40.13;;;25.60;;
44885;SDS011;36669;51.428;21.162;2022-09-27T18:22:19;81.80;;;53.38;;
44885;SDS011;36669;51.428;21.162;2022-09-27T18:24:44;49.05;;;32.00;;
44885;SDS011;36669;51.428;21.162;2022-09-27T18:27:10;54.10;;;32.53;;
44885;SDS011;36669;51.428;21.162;2022-09-27T18:29:36;55.90;;;33.33;;
44885;SDS011;36669;51.428;21.162;2022-09-27T18:32:01;63.55;;;38.92;;
44885;SDS011;36669;51.428;21.162;2022-09-27T18:34:27;70.90;;;41.90;;
44885;SDS011;36669;51.428;21.162;2022-09-27T18:36:52;79.15;;;48.42;;
44885;SDS011;36669;51.428;21.162;2022-09-27T18:39:18;81.35;;;45.75;;
44885;SDS011;36669;51.428;21.162;2022-09-27T18:41:44;72.50;;;42.17;;
44885;SDS011;36669;51.428;21.162;2022-09-27T18:44:11;71.32;;;41.20;;
44885;SDS011;36669;51.428;21.162;2022-09-27T18:46:37;79.35;;;44.33;;
44885;SDS011;36669;51.428;21.162;2022-09-27T18:49:04;76.60;;;45.08;;
44885;SDS011;36669;51.428;21.162;2022-09-27T18:51:31;73.72;;;42.72;;
44885;SDS011;36669;51.428;21.162;2022-09-27T18:53:58;105.50;;;56.13;;
44885;SDS011;36669;51.428;21.162;2022-09-27T18:56:27;98.30;;;56.72;;
44885;SDS011;36669;51.428;21.162;2022-09-27T18:58:53;87.43;;;49.67;;
44885;SDS011;36669;51.428;21.162;2022-09-27T19:01:19;88.13;;;50.15;;
44885;SDS011;36669;51.428;21.162;2022-09-27T19:03:46;100.22;;;58.92;;
44885;SDS011;36669;51.428;21.162;2022-09-27T19:06:12;87.28;;;51.95;;
44885;SDS011;36669;51.428;21.162;2022-09-27T19:08:40;84.95;;;48.65;;
44885;SDS011;36669;51.428;21.162;2022-09-27T19:11:07;83.50;;;49.30;;
44885;SDS011;36669;51.428;21.162;2022-09-27T19:13:36;91.32;;;53.40;;
44885;SDS011;36669;51.428;21.162;2022-09-27T19:16:02;87.43;;;51.60;;